Des Moines, IA (50322)

4:19 PM CDT on September 28, 2016 (GMT -0500)
Chipmunk and Squirrel Railroad | | Change Station

Elev 957 ft 41.63 °N, 93.75 °W | Updated 1 minute ago

Overcast
Overcast
60.1 °F
Feels Like 60.1 °F
N
3.0
Wind Variable Wind from NNW
Gusts 10.0 mph

Today
High -- | Low -- °F
--% Chance of Precip.
Yesterday
High -- | Low -- °F
Precip. -- in
Pressure 30.17 in
Visibility 10.0 miles
Clouds Mostly Cloudy 3700 ft
Overcast 4500 ft
Dew Point 50 °F
Humidity 70%
Rainfall 0.00 in
Snow Depth Not available.
7:09 AM 7:00 PM
Waning Crescent, 4% visible
METAR KDSM 282054Z 36009KT 10SM BKN037 OVC045 16/09 A3017 RMK AO2 SLP215 T01610094 51015
Pressure 30.17 in
Visibility 10.0 miles
Clouds Mostly Cloudy 3700 ft
Overcast 4500 ft
Dew Point 50 °F
Humidity 70%
Rainfall 0.00 in
Snow Depth Not available.
7:09 AM 7:00 PM
Waning Crescent, 4% visible
METAR KDSM 282054Z 36009KT 10SM BKN037 OVC045 16/09 A3017 RMK AO2 SLP215 T01610094 51015

10-Day Weather Forecast

Almanac

Astronomy

Sep. 28, 2016 Rise Set
Actual Time
Civil Twilight
Nautical Twilight
Astronomical Twilight
Moon
Length of Visible Light
Length of Day
Tomorrow will be .
, % of the Moon is Illuminated

Today's Extremes

State Highs State Lows

Community

WunderPhotos

Upload Photos

1,942,328 photos uploaded!

WunderBlog® & News

Nearby

Air Quality

  Air Quality AQ Index Pollutant
Not available.

Snow Depth

Station Depth Elevation

Earthquake Activity

City Distance Mag. Time & Date
Minimum magnitude displayed is 2.5.

Coastal Water Temperatures

Place Temperature

Stations

Nearby Weather Stations

Station Location Temp. Windchill Dew Point Humidity Wind Precip. Elev Updated Type
                   

Watches & Warnings

There are currently no watches in effect.